^^
Meteo Knjazevac Station Historical Data
Daily Summary for September 30, 2021 Units:  English    Metric   Both
Daily Weekly Monthly Yearly Custom
  High: Low: Average:
Temperature: 71.2 °F 66.4 °F 68.2 °F
Dew Point: 65.8 °F 63.4 °F 64.3 °F
Humidity: 91% 83% 88%
Wind Speed: 3mph 1mph 2.4mph
Wind Gust: 7mph - -
Wind- - West
Pressure: 29.99 in 29.98 in -
Precipitation: 0.00 in    
Historical Graphs
 
 
Tabular Data for September 30, 2021
Time Temperature Dew Point Pressure Wind Wind Speed Wind Gust Humidity Rainfall Rate (Hourly) solar Conditions
00:00 71.2 °F 65.8 °F 29.98 in West 2 mph 4 mph 83% 0.00 in 0 W/m2
00:10 70.8 °F 65.4 °F 29.98 in WSW 1 mph 3 mph 83% 0.00 in 0 W/m2
00:20 70.3 °F 65.3 °F 29.98 in West 2 mph 4 mph 84% 0.00 in 0 W/m2
00:30 70 °F 64.9 °F 29.98 in WSW 2 mph 3 mph 84% 0.00 in 0 W/m2
00:40 69.8 °F 65.1 °F 29.98 in West 2 mph 4 mph 85% 0.00 in 0 W/m2
00:50 69.7 °F 65 °F 29.98 in West 3 mph 5 mph 85% 0.00 in 0 W/m2
01:00 69.3 °F 64.9 °F 29.99 in West 3 mph 5 mph 86% 0.00 in 0 W/m2
01:10 68.9 °F 64.5 °F 29.99 in West 3 mph 5 mph 86% 0.00 in 0 W/m2
01:20 68.5 °F 64.2 °F 29.99 in West 2 mph 6 mph 86% 0.00 in 0 W/m2
01:30 68.4 °F 64.7 °F 29.98 in West 3 mph 5 mph 88% 0.00 in 0 W/m2
01:40 68 °F 64.3 °F 29.99 in West 1 mph 4 mph 88% 0.00 in 0 W/m2
01:50 67.8 °F 64.1 °F 29.99 in West 3 mph 6 mph 88% 0.00 in 0 W/m2
02:00 67.4 °F 64 °F 29.98 in WSW 3 mph 5 mph 89% 0.00 in 0 W/m2
02:10 67.3 °F 63.9 °F 29.98 in West 3 mph 7 mph 89% 0.00 in 0 W/m2
02:20 67.5 °F 64.1 °F 29.98 in West 2 mph 7 mph 89% 0.00 in 0 W/m2
02:30 67.3 °F 63.9 °F 29.98 in West 2 mph 5 mph 89% 0.00 in 0 W/m2
02:40 66.7 °F 63.4 °F 29.99 in West 3 mph 5 mph 89% 0.00 in 0 W/m2
02:50 66.4 °F 63.4 °F 29.99 in West 3 mph 6 mph 90% 0.00 in 0 W/m2
03:00 66.4 °F 63.4 °F 29.99 in West 3 mph 6 mph 90% 0.00 in 0 W/m2
03:10 66.4 °F 63.7 °F 29.99 in West 3 mph 7 mph 91% 0.00 in 0 W/m2
03:20 66.6 °F 63.5 °F 29.99 in West 2 mph 5 mph 90% 0.00 in 0 W/m2
03:30 66.6 °F 63.5 °F 29.99 in West 2 mph 5 mph 90% 0.00 in 0 W/m2
03:40 66.4 °F 63.4 °F 29.99 in West 2 mph 4 mph 90% 0.00 in 0 W/m2
Knjazevac, Serbia
Compliments of Weather Underground - 2 mb